createdAt,value
2023-05-18T00:00:02.574Z,15.00
2023-05-18T00:02:31.804Z,12.00
2023-05-18T00:05:02.415Z,14.40
2023-05-18T00:07:34.286Z,16.50
2023-05-18T00:10:01.940Z,13.30
2023-05-18T00:12:29.035Z,10.60
2023-05-18T00:14:56.043Z,15.10
2023-05-18T00:17:23.629Z,10.80
2023-05-18T00:19:51.921Z,18.10
2023-05-18T00:22:19.443Z,16.80
2023-05-18T00:24:46.818Z,12.10
2023-05-18T00:27:13.755Z,14.60
2023-05-18T00:29:40.581Z,13.70
2023-05-18T00:32:08.024Z,15.20
2023-05-18T00:34:37.321Z,13.50
2023-05-18T00:37:04.472Z,12.60
2023-05-18T00:39:31.443Z,14.50
2023-05-18T00:41:58.269Z,11.10
2023-05-18T00:44:25.108Z,14.60
2023-05-18T00:46:52.493Z,12.80
2023-05-18T00:49:19.322Z,12.10
2023-05-18T00:51:46.127Z,10.90
2023-05-18T00:54:12.951Z,13.90
2023-05-18T00:56:42.197Z,13.00
2023-05-18T00:59:12.521Z,12.70
2023-05-18T01:01:43.916Z,12.90
2023-05-18T01:04:14.421Z,10.90
2023-05-18T01:06:43.235Z,11.70
2023-05-18T01:09:11.895Z,14.30
2023-05-18T01:12:20.527Z,11.90
2023-05-18T01:15:01.912Z,11.30
2023-05-18T01:17:51.380Z,13.40
2023-05-18T01:20:49.533Z,14.50
2023-05-18T01:23:55.038Z,12.90
2023-05-18T01:26:30.173Z,15.30
2023-05-18T01:28:59.488Z,14.50
2023-05-18T01:31:27.016Z,17.80
2023-05-18T01:33:53.930Z,14.40
2023-05-18T01:36:20.865Z,20.30
2023-05-18T01:38:47.641Z,16.60
2023-05-18T01:41:22.746Z,16.30
2023-05-18T01:44:07.402Z,12.00
2023-05-18T01:46:43.545Z,14.10
2023-05-18T01:49:25.437Z,14.30
2023-05-18T01:51:52.467Z,12.10
2023-05-18T01:54:19.483Z,12.40
2023-05-18T01:56:46.284Z,12.20
2023-05-18T01:59:13.088Z,13.60
2023-05-18T02:01:40.184Z,10.10
2023-05-18T02:04:10.679Z,19.20
2023-05-18T02:09:05.804Z,15.40
2023-05-18T02:11:33.541Z,15.80
2023-05-18T02:14:01.210Z,14.30
2023-05-18T02:16:28.331Z,14.80
2023-05-18T02:18:56.303Z,14.50
2023-05-18T02:21:23.307Z,17.00
2023-05-18T02:23:50.552Z,12.00
2023-05-18T02:26:17.912Z,13.10
2023-05-18T02:28:52.752Z,11.50
2023-05-18T02:31:19.694Z,15.20
2023-05-18T02:33:46.599Z,12.60
2023-05-18T02:36:14.250Z,11.40
2023-05-18T02:38:42.812Z,16.10
2023-05-18T02:41:10.704Z,12.90
2023-05-18T02:43:37.948Z,13.70
2023-05-18T02:46:04.975Z,12.30
2023-05-18T02:48:32.634Z,14.00
2023-05-18T02:50:59.410Z,11.90
2023-05-18T02:53:27.021Z,13.10
2023-05-18T02:56:03.415Z,15.30
2023-05-18T02:58:39.120Z,12.70
2023-05-18T03:01:22.250Z,13.30
2023-05-18T03:03:53.170Z,15.30
2023-05-18T03:06:26.801Z,15.50
2023-05-18T03:08:54.582Z,15.10
2023-05-18T03:11:23.845Z,24.70
2023-05-18T03:13:51.380Z,11.50
2023-05-18T03:16:18.998Z,24.90
2023-05-18T03:18:47.147Z,20.70
2023-05-18T03:21:15.420Z,18.70
2023-05-18T03:23:42.480Z,23.70
2023-05-18T03:26:11.525Z,14.00
2023-05-18T03:28:39.152Z,14.50
2023-05-18T03:31:06.246Z,13.60
2023-05-18T03:33:34.206Z,16.80
2023-05-18T03:36:03.357Z,18.30
2023-05-18T03:38:30.514Z,17.50
2023-05-18T03:41:02.255Z,16.90
2023-05-18T03:43:33.942Z,14.10
2023-05-18T03:46:00.861Z,22.40
2023-05-18T03:48:27.989Z,13.70
2023-05-18T03:50:54.997Z,14.90
2023-05-18T03:53:22.239Z,12.10
2023-05-18T03:55:51.666Z,13.90
2023-05-18T03:58:22.551Z,10.50
2023-05-18T04:03:18.822Z,11.70
2023-05-18T04:05:46.119Z,16.80
2023-05-18T04:08:15.947Z,10.80
2023-05-18T04:10:43.549Z,16.70
2023-05-18T04:13:10.674Z,12.00
2023-05-18T04:15:38.052Z,14.60
2023-05-18T04:18:05.022Z,8.90
2023-05-18T04:20:31.893Z,8.40
2023-05-18T04:22:58.766Z,12.50
2023-05-18T04:25:28.958Z,38.90
2023-05-18T04:27:56.195Z,13.40
2023-05-18T04:30:26.829Z,10.50
2023-05-18T04:32:54.865Z,13.70
2023-05-18T04:35:22.077Z,13.60
2023-05-18T04:37:48.847Z,16.40
2023-05-18T04:40:17.759Z,17.00
2023-05-18T04:42:47.958Z,10.10
2023-05-18T04:45:19.659Z,11.00
2023-05-18T04:47:48.213Z,18.00
2023-05-18T04:50:18.166Z,12.50
2023-05-18T04:52:49.095Z,10.90
2023-05-18T04:55:23.250Z,10.10
2023-05-18T04:57:50.891Z,16.20
2023-05-18T05:00:18.624Z,13.40
2023-05-18T05:02:45.648Z,10.60
2023-05-18T05:05:13.146Z,12.90
2023-05-18T05:07:39.955Z,8.00
2023-05-18T05:10:09.703Z,18.60
2023-05-18T05:12:39.615Z,8.80
2023-05-18T05:15:07.666Z,10.20
2023-05-18T05:17:34.525Z,9.30
2023-05-18T05:20:01.321Z,7.40
2023-05-18T05:22:28.420Z,14.20
2023-05-18T05:24:55.678Z,8.40
2023-05-18T05:28:06.168Z,8.20
2023-05-18T05:30:33.640Z,8.90
2023-05-18T05:33:01.092Z,5.70
2023-05-18T05:35:30.439Z,15.20
2023-05-18T05:37:59.026Z,7.90
2023-05-18T05:40:25.875Z,7.80
2023-05-18T05:42:53.324Z,10.50
2023-05-18T05:45:20.132Z,13.10
2023-05-18T05:47:54.365Z,12.10
2023-05-18T05:50:22.546Z,17.70
2023-05-18T05:52:50.922Z,8.70
2023-05-18T05:55:18.587Z,9.20
2023-05-18T05:57:45.450Z,12.10
2023-05-18T06:00:13.173Z,7.00
2023-05-18T06:02:50.316Z,12.00
2023-05-18T06:05:24.600Z,12.00
2023-05-18T06:07:52.090Z,11.70
2023-05-18T06:10:19.109Z,13.50
2023-05-18T06:12:45.932Z,8.40
2023-05-18T06:15:12.790Z,6.50
2023-05-18T06:17:40.434Z,9.10
2023-05-18T06:20:08.533Z,10.30
2023-05-18T06:22:36.526Z,13.70
2023-05-18T06:25:18.854Z,11.70
2023-05-18T06:28:09.061Z,12.40
2023-05-18T06:30:43.006Z,8.50
2023-05-18T06:33:21.601Z,13.00
2023-05-18T06:35:48.370Z,9.60
2023-05-18T06:38:15.254Z,6.70
2023-05-18T06:40:44.287Z,6.00
2023-05-18T06:43:13.252Z,10.30
2023-05-18T06:45:56.603Z,7.40
2023-05-18T06:48:31.524Z,15.70
2023-05-18T06:50:58.519Z,8.70
2023-05-18T06:53:26.421Z,14.20
2023-05-18T06:55:53.399Z,10.50
2023-05-18T06:58:20.515Z,10.40
2023-05-18T07:00:48.500Z,8.80
2023-05-18T07:03:15.404Z,6.20
2023-05-18T07:05:42.285Z,8.10
2023-05-18T07:08:13.935Z,10.30
2023-05-18T07:10:41.224Z,7.90
2023-05-18T07:13:08.057Z,9.20
2023-05-18T07:15:35.134Z,5.10
2023-05-18T07:18:03.764Z,6.80
2023-05-18T07:20:30.897Z,5.40
2023-05-18T07:22:58.059Z,5.50
2023-05-18T07:25:24.965Z,6.40
2023-05-18T07:27:54.760Z,5.90
2023-05-18T07:30:22.406Z,5.30
2023-05-18T07:32:49.272Z,4.60
2023-05-18T07:35:17.099Z,8.30
2023-05-18T07:37:43.926Z,8.70
2023-05-18T07:40:11.553Z,6.10
2023-05-18T07:42:41.528Z,6.40
2023-05-18T07:45:09.107Z,10.40
2023-05-18T07:47:36.165Z,9.30
2023-05-18T07:50:02.980Z,11.70
2023-05-18T07:52:30.102Z,8.50
2023-05-18T07:55:00.190Z,12.10
2023-05-18T07:57:27.290Z,5.90
2023-05-18T07:59:54.104Z,5.30
2023-05-18T08:02:21.006Z,10.90
2023-05-18T08:04:48.121Z,13.60
2023-05-18T08:07:15.033Z,12.50
2023-05-18T08:09:41.919Z,7.70
2023-05-18T08:12:08.779Z,9.30
2023-05-18T08:14:35.904Z,8.60
2023-05-18T08:17:06.976Z,13.60
2023-05-18T08:19:33.859Z,7.70
2023-05-18T08:22:00.642Z,10.00
2023-05-18T08:24:27.532Z,11.20
2023-05-18T08:26:54.396Z,9.30
2023-05-18T08:29:21.391Z,12.00
2023-05-18T08:31:49.703Z,11.40
2023-05-18T08:34:16.881Z,8.80
2023-05-18T08:36:45.737Z,13.00
2023-05-18T08:39:13.040Z,9.70
2023-05-18T08:41:58.742Z,12.20
2023-05-18T08:44:38.792Z,10.80
2023-05-18T08:47:11.385Z,9.80
2023-05-18T08:49:38.264Z,8.60
2023-05-18T08:52:05.503Z,10.80
2023-05-18T08:54:32.278Z,12.10
2023-05-18T08:56:59.085Z,12.30
2023-05-18T08:59:27.501Z,9.50
2023-05-18T09:01:55.124Z,14.90
2023-05-18T09:04:22.558Z,10.50
2023-05-18T09:06:53.206Z,9.10
2023-05-18T09:09:20.171Z,11.60
2023-05-18T09:11:47.035Z,10.00
2023-05-18T09:14:14.119Z,8.70
2023-05-18T09:16:41.064Z,9.90
2023-05-18T09:19:10.102Z,8.60
2023-05-18T09:21:36.971Z,12.00
2023-05-18T09:24:03.946Z,10.10
2023-05-18T09:26:31.126Z,8.60
2023-05-18T09:28:59.766Z,9.00
2023-05-18T09:31:28.617Z,10.20
2023-05-18T09:33:55.650Z,12.20
2023-05-18T09:36:26.356Z,9.00
2023-05-18T09:38:54.755Z,8.80
2023-05-18T09:41:21.961Z,9.70
2023-05-18T09:43:50.110Z,11.40
2023-05-18T09:46:18.150Z,7.90
2023-05-18T09:48:52.566Z,8.30
2023-05-18T09:51:19.908Z,6.70
2023-05-18T09:53:53.836Z,14.30
2023-05-18T09:56:21.724Z,9.90
2023-05-18T09:58:48.545Z,9.60
2023-05-18T10:01:15.706Z,6.20
2023-05-18T10:03:45.271Z,10.80
2023-05-18T10:06:14.870Z,8.60
2023-05-18T10:08:41.651Z,13.50
2023-05-18T10:11:08.547Z,10.70
2023-05-18T10:13:35.492Z,8.20
2023-05-18T10:16:04.139Z,10.40
2023-05-18T10:18:37.677Z,8.30
2023-05-18T10:21:05.947Z,9.00
2023-05-18T10:23:36.444Z,7.50
2023-05-18T10:26:05.290Z,8.90
2023-05-18T10:28:36.301Z,9.20
2023-05-18T10:31:04.456Z,11.10
2023-05-18T10:33:31.648Z,6.70
2023-05-18T10:35:58.937Z,13.20
2023-05-18T10:38:27.417Z,6.60
2023-05-18T10:40:55.926Z,7.10
2023-05-18T10:43:32.593Z,8.00
2023-05-18T10:46:01.039Z,9.50
2023-05-18T10:48:29.634Z,9.10
2023-05-18T10:50:57.784Z,12.90
2023-05-18T10:53:36.567Z,5.90
2023-05-18T10:56:03.805Z,7.70
2023-05-18T10:58:30.984Z,8.20
2023-05-18T11:01:02.006Z,6.40
2023-05-18T11:03:28.936Z,10.20
2023-05-18T11:06:12.251Z,6.70
2023-05-18T11:08:49.978Z,8.80
2023-05-18T11:11:19.220Z,8.80
2023-05-18T11:13:50.367Z,11.50
2023-05-18T11:16:18.431Z,9.30
2023-05-18T11:18:49.914Z,11.60
2023-05-18T11:21:20.416Z,10.70
2023-05-18T11:24:25.129Z,10.00
2023-05-18T11:26:56.332Z,9.10
2023-05-18T11:29:29.776Z,8.50
2023-05-18T11:31:56.961Z,9.80
2023-05-18T11:34:46.677Z,12.20
2023-05-18T11:37:14.813Z,10.20
2023-05-18T11:39:51.693Z,8.40
2023-05-18T11:42:25.158Z,13.00
2023-05-18T11:44:57.846Z,12.50
2023-05-18T11:47:30.303Z,8.90
2023-05-18T11:49:57.240Z,10.90
2023-05-18T11:52:25.036Z,8.70
2023-05-18T11:55:01.465Z,9.80
2023-05-18T11:57:34.301Z,11.40
2023-05-18T12:00:02.685Z,8.10
2023-05-18T12:02:39.636Z,8.60
2023-05-18T12:05:08.349Z,9.00
2023-05-18T12:07:36.414Z,8.70
2023-05-18T12:10:12.112Z,7.30
2023-05-18T12:12:39.979Z,9.70
2023-05-18T12:15:11.539Z,7.90
2023-05-18T12:17:42.432Z,7.30
2023-05-18T12:20:11.702Z,7.80
2023-05-18T12:22:42.861Z,9.00
2023-05-18T12:25:09.913Z,6.90
2023-05-18T12:27:43.949Z,10.30
2023-05-18T12:30:21.394Z,10.30
2023-05-18T12:32:52.741Z,11.20
2023-05-18T12:35:26.357Z,8.50
2023-05-18T12:37:55.629Z,8.40
2023-05-18T12:40:22.572Z,9.40
2023-05-18T12:42:53.742Z,7.70
2023-05-18T12:45:25.635Z,9.00
2023-05-18T12:47:54.730Z,8.60
2023-05-18T12:50:22.580Z,7.30
2023-05-18T12:52:49.528Z,7.50
2023-05-18T12:55:23.267Z,13.80
2023-05-18T12:58:18.114Z,8.30
2023-05-18T13:00:46.116Z,9.70
2023-05-18T13:03:16.329Z,6.70
2023-05-18T13:05:45.698Z,10.80
2023-05-18T13:08:18.132Z,10.70
2023-05-18T13:10:55.213Z,14.60
2023-05-18T13:13:28.686Z,8.80
2023-05-18T13:15:55.546Z,11.20
2023-05-18T13:18:22.486Z,10.10
2023-05-18T13:20:51.828Z,8.40
2023-05-18T13:23:21.216Z,11.70
2023-05-18T13:25:48.228Z,12.50
2023-05-18T13:28:16.234Z,27.60
2023-05-18T13:30:43.290Z,9.60
2023-05-18T13:33:10.884Z,10.90
2023-05-18T13:35:38.718Z,11.30
2023-05-18T13:38:05.487Z,9.80
2023-05-18T13:40:32.306Z,11.50
2023-05-18T13:42:59.069Z,9.60
2023-05-18T13:45:26.264Z,10.60
2023-05-18T13:47:56.946Z,11.60
2023-05-18T13:52:50.875Z,10.90
2023-05-18T13:55:17.685Z,9.80
2023-05-18T13:57:47.628Z,10.30
2023-05-18T14:00:16.038Z,11.90
2023-05-18T14:02:43.802Z,11.40
2023-05-18T14:05:10.896Z,9.80
2023-05-18T14:07:38.270Z,8.40
2023-05-18T14:10:09.537Z,12.70
2023-05-18T14:12:36.388Z,14.60
2023-05-18T14:15:03.738Z,13.90
2023-05-18T14:17:30.859Z,10.00
2023-05-18T14:19:57.787Z,10.20
2023-05-18T14:22:26.252Z,12.00
2023-05-18T14:24:53.553Z,8.30
2023-05-18T14:27:20.660Z,12.40
2023-05-18T14:29:48.172Z,10.50
2023-05-18T14:32:15.195Z,10.50
2023-05-18T14:34:42.044Z,10.00
2023-05-18T14:37:10.019Z,11.40
2023-05-18T14:39:37.952Z,10.00
2023-05-18T14:42:06.277Z,8.60
2023-05-18T14:44:33.308Z,8.80
2023-05-18T14:47:00.166Z,13.20
2023-05-18T14:49:27.207Z,9.70
2023-05-18T14:51:54.139Z,13.80
2023-05-18T14:54:22.684Z,15.00
2023-05-18T14:56:50.063Z,13.10
2023-05-18T14:59:16.856Z,9.70
2023-05-18T15:01:44.936Z,8.50
2023-05-18T15:04:12.254Z,10.70
2023-05-18T15:06:40.641Z,10.50
2023-05-18T15:09:08.445Z,12.00
2023-05-18T15:11:35.286Z,10.40
2023-05-18T15:14:02.018Z,9.60
2023-05-18T15:16:28.906Z,8.20
2023-05-18T15:18:56.436Z,9.40
2023-05-18T15:21:23.279Z,10.90
2023-05-18T15:23:50.055Z,12.90
2023-05-18T15:26:16.817Z,11.90
2023-05-18T15:28:45.123Z,10.70
2023-05-18T15:31:12.164Z,10.40
2023-05-18T15:33:42.535Z,8.60
2023-05-18T15:36:09.826Z,14.90
2023-05-18T15:38:36.615Z,12.80
2023-05-18T15:41:03.510Z,11.60
2023-05-18T15:43:31.084Z,14.70
2023-05-18T15:45:58.568Z,15.20
2023-05-18T15:48:25.817Z,20.90
2023-05-18T15:50:52.777Z,18.80
2023-05-18T15:53:19.569Z,12.30
2023-05-18T15:55:46.633Z,10.30
2023-05-18T15:58:13.591Z,19.00
2023-05-18T16:00:40.544Z,14.30
2023-05-18T16:03:07.485Z,12.60
2023-05-18T16:05:34.336Z,15.10
2023-05-18T16:08:01.460Z,14.30
2023-05-18T16:10:28.485Z,13.00
2023-05-18T16:12:55.479Z,17.30
2023-05-18T16:15:24.714Z,14.50
2023-05-18T16:17:51.623Z,19.00
2023-05-18T16:20:18.664Z,15.60
2023-05-18T16:22:46.923Z,13.70
2023-05-18T16:25:16.963Z,14.50
2023-05-18T16:27:43.861Z,15.70
2023-05-18T16:30:10.951Z,17.50
2023-05-18T16:32:37.854Z,17.10
2023-05-18T16:35:05.235Z,19.40
2023-05-18T16:37:34.634Z,37.10
2023-05-18T16:40:01.441Z,29.80
2023-05-18T16:42:28.276Z,36.90
2023-05-18T16:44:55.700Z,17.20
2023-05-18T16:47:23.045Z,37.10
2023-05-18T16:49:49.849Z,21.50
2023-05-18T16:52:18.401Z,46.30
2023-05-18T16:54:45.677Z,53.20
2023-05-18T16:57:13.340Z,31.40
2023-05-18T16:59:40.150Z,32.60
2023-05-18T17:02:09.051Z,54.60
2023-05-18T17:04:35.952Z,44.10
2023-05-18T17:07:02.850Z,39.40
2023-05-18T17:09:29.730Z,46.30
2023-05-18T17:11:56.502Z,29.60
2023-05-18T17:14:23.336Z,26.90
2023-05-18T17:16:50.108Z,53.50
2023-05-18T17:19:16.962Z,33.90
2023-05-18T17:21:43.966Z,17.60
2023-05-18T17:24:12.941Z,16.10
2023-05-18T17:26:39.738Z,24.90
2023-05-18T17:29:06.936Z,19.00
2023-05-18T17:31:33.918Z,26.60
2023-05-18T17:34:01.997Z,32.00
2023-05-18T17:36:28.944Z,31.90
2023-05-18T17:38:56.596Z,35.70
2023-05-18T17:41:26.061Z,27.00
2023-05-18T17:45:20.416Z,22.00
2023-05-18T17:47:47.278Z,15.90
2023-05-18T17:50:14.734Z,23.90
2023-05-18T17:52:41.538Z,16.80
2023-05-18T17:55:08.889Z,17.90
2023-05-18T17:57:35.914Z,20.50
2023-05-18T18:00:02.874Z,13.20
2023-05-18T18:02:38.257Z,24.30
2023-05-18T18:05:05.420Z,20.60
2023-05-18T18:07:32.172Z,28.50
2023-05-18T18:09:59.225Z,22.00
2023-05-18T18:12:26.031Z,25.90
2023-05-18T18:14:53.121Z,27.80
2023-05-18T18:17:19.965Z,17.10
2023-05-18T18:19:46.807Z,25.10
2023-05-18T18:22:13.726Z,26.50
2023-05-18T18:24:40.544Z,24.70
2023-05-18T18:27:07.380Z,20.70
2023-05-18T18:29:34.145Z,21.60
2023-05-18T18:32:01.243Z,20.60
2023-05-18T18:34:28.094Z,33.10
2023-05-18T18:36:54.984Z,24.30
2023-05-18T18:39:22.043Z,20.10
2023-05-18T18:41:48.887Z,16.60
2023-05-18T18:44:15.842Z,18.40
2023-05-18T18:46:43.381Z,16.10
2023-05-18T18:49:10.227Z,14.70
2023-05-18T18:51:38.064Z,18.60
2023-05-18T18:54:05.025Z,19.50
2023-05-18T18:56:32.117Z,19.30
2023-05-18T18:58:58.930Z,16.00
2023-05-18T19:01:25.765Z,16.00
2023-05-18T19:03:54.185Z,19.40
2023-05-18T19:06:22.788Z,15.40
2023-05-18T19:08:52.191Z,13.30
2023-05-18T19:11:22.143Z,17.20
2023-05-18T19:13:49.208Z,17.60
2023-05-18T19:16:17.708Z,15.90
2023-05-18T19:18:44.895Z,16.90
2023-05-18T19:21:11.712Z,16.10
2023-05-18T19:23:39.031Z,19.60
2023-05-18T19:26:05.874Z,18.20
2023-05-18T19:28:33.994Z,18.60
2023-05-18T19:31:02.767Z,29.20
2023-05-18T19:33:30.832Z,14.40
2023-05-18T19:35:58.188Z,19.70
2023-05-18T19:38:25.695Z,18.00
2023-05-18T19:40:52.549Z,18.90
2023-05-18T19:43:20.998Z,19.10
2023-05-18T19:45:49.939Z,17.80
2023-05-18T19:48:18.007Z,16.00
2023-05-18T19:50:44.762Z,18.30
2023-05-18T19:53:11.751Z,17.40
2023-05-18T19:55:39.010Z,25.40
2023-05-18T19:58:06.572Z,22.00
2023-05-18T20:00:33.932Z,18.60
2023-05-18T20:03:03.257Z,18.60
2023-05-18T20:05:30.328Z,19.30
2023-05-18T20:07:58.280Z,15.20
2023-05-18T20:10:25.459Z,21.20
2023-05-18T20:12:52.292Z,17.20
2023-05-18T20:15:19.105Z,17.90
2023-05-18T20:17:46.215Z,18.10
2023-05-18T20:20:13.134Z,14.20
2023-05-18T20:22:40.303Z,15.80
2023-05-18T20:25:07.898Z,16.00
2023-05-18T20:27:34.642Z,24.70
2023-05-18T20:30:01.419Z,22.60
2023-05-18T20:32:29.085Z,18.90
2023-05-18T20:34:56.054Z,21.30
2023-05-18T20:37:24.185Z,17.00
2023-05-18T20:39:51.656Z,22.70
2023-05-18T20:42:21.894Z,18.30
2023-05-18T20:44:51.293Z,18.80
2023-05-18T20:47:21.488Z,23.10
2023-05-18T20:49:48.734Z,18.40
2023-05-18T20:52:15.600Z,15.30
2023-05-18T20:54:43.474Z,16.50
2023-05-18T20:57:10.698Z,20.00
2023-05-18T20:59:37.724Z,24.80
2023-05-18T21:02:05.072Z,22.50
2023-05-18T21:04:32.018Z,21.10
2023-05-18T21:06:58.890Z,30.70
2023-05-18T21:09:25.702Z,29.50
2023-05-18T21:11:52.591Z,26.50
2023-05-18T21:14:19.413Z,26.80
2023-05-18T21:16:46.944Z,23.60
2023-05-18T21:19:13.899Z,19.40
2023-05-18T21:21:40.736Z,18.80
2023-05-18T21:24:08.634Z,17.10
2023-05-18T21:26:35.482Z,15.40
2023-05-18T21:29:02.350Z,18.50
2023-05-18T21:31:31.964Z,28.90
2023-05-18T21:33:58.823Z,28.80
2023-05-18T21:36:33.893Z,16.60
2023-05-18T21:39:01.931Z,16.10
2023-05-18T21:41:29.265Z,17.70
2023-05-18T21:43:57.779Z,18.50
2023-05-18T21:46:24.725Z,21.10
2023-05-18T21:48:51.760Z,18.10
2023-05-18T21:51:18.691Z,24.80
2023-05-18T21:53:46.015Z,16.80
2023-05-18T21:56:12.792Z,16.20
2023-05-18T21:58:39.584Z,18.00
2023-05-18T22:01:06.765Z,21.40
2023-05-18T22:03:33.620Z,18.20
2023-05-18T22:06:00.516Z,17.40
2023-05-18T22:08:30.138Z,19.40
2023-05-18T22:10:56.961Z,21.50
2023-05-18T22:13:23.832Z,17.40
2023-05-18T22:15:50.895Z,22.30
2023-05-18T22:18:19.257Z,21.80
2023-05-18T22:20:46.071Z,22.40
2023-05-18T22:23:12.928Z,20.90
2023-05-18T22:25:39.689Z,23.00
2023-05-18T22:28:06.609Z,27.70
2023-05-18T22:30:33.894Z,25.00
2023-05-18T22:33:01.091Z,23.20
2023-05-18T22:35:27.934Z,20.10
2023-05-18T22:37:54.899Z,22.70
2023-05-18T22:40:21.962Z,28.00
2023-05-18T22:42:49.361Z,21.80
2023-05-18T22:45:16.495Z,24.10
2023-05-18T22:47:45.372Z,23.80
2023-05-18T22:50:12.320Z,23.30
2023-05-18T22:52:40.604Z,20.50
2023-05-18T22:55:16.266Z,25.60
2023-05-18T22:57:43.675Z,23.10
2023-05-18T23:00:12.530Z,22.00
2023-05-18T23:02:40.056Z,20.80
2023-05-18T23:05:08.195Z,19.70
2023-05-18T23:07:38.380Z,22.30
2023-05-18T23:10:11.217Z,22.60
2023-05-18T23:12:38.321Z,23.70
2023-05-18T23:15:06.078Z,23.00
2023-05-18T23:17:33.065Z,20.00
2023-05-18T23:20:02.823Z,20.10
2023-05-18T23:22:29.568Z,20.30
2023-05-18T23:24:56.418Z,19.50
2023-05-18T23:27:23.194Z,21.90
2023-05-18T23:29:49.979Z,19.50
2023-05-18T23:32:16.795Z,19.70
2023-05-18T23:34:44.754Z,21.20
2023-05-18T23:37:11.615Z,21.50
2023-05-18T23:39:40.911Z,23.50
2023-05-18T23:42:08.701Z,24.20
2023-05-18T23:44:35.961Z,19.70
2023-05-18T23:47:04.725Z,23.20
2023-05-18T23:49:32.313Z,18.90
2023-05-18T23:52:01.376Z,17.70
2023-05-18T23:54:28.827Z,19.60
2023-05-18T23:56:56.173Z,19.90
2023-05-18T23:59:23.544Z,19.90
